sensor_id;sensor_type;location;lat;lon;timestamp;pressure;altitude;pressure_sealevel;temperature;humidity
5550;BME280;2798;42.716;23.256;2023-12-20T00:02:18;95081.63;;;3.99;79.30
5550;BME280;2798;42.716;23.256;2023-12-20T00:04:43;95081.03;;;3.92;79.91
5550;BME280;2798;42.716;23.256;2023-12-20T00:07:11;95084.03;;;3.81;80.09
5550;BME280;2798;42.716;23.256;2023-12-20T00:09:36;95078.88;;;3.82;80.42
5550;BME280;2798;42.716;23.256;2023-12-20T00:12:01;95075.41;;;3.85;79.40
5550;BME280;2798;42.716;23.256;2023-12-20T00:14:27;95079.00;;;3.79;80.55
5550;BME280;2798;42.716;23.256;2023-12-20T00:16:52;95071.03;;;3.87;80.95
5550;BME280;2798;42.716;23.256;2023-12-20T00:19:18;95066.19;;;3.81;80.98
5550;BME280;2798;42.716;23.256;2023-12-20T00:21:43;95094.16;;;3.82;80.29
5550;BME280;2798;42.716;23.256;2023-12-20T00:24:08;95063.84;;;3.76;80.32
5550;BME280;2798;42.716;23.256;2023-12-20T00:26:34;95053.13;;;3.68;81.37
5550;BME280;2798;42.716;23.256;2023-12-20T00:28:59;95042.81;;;3.71;81.21
5550;BME280;2798;42.716;23.256;2023-12-20T00:31:24;95047.03;;;3.72;80.81
5550;BME280;2798;42.716;23.256;2023-12-20T00:33:50;95035.31;;;3.68;80.59
5550;BME280;2798;42.716;23.256;2023-12-20T00:36:15;95040.72;;;3.60;81.68
5550;BME280;2798;42.716;23.256;2023-12-20T00:38:40;95038.94;;;3.62;81.63
5550;BME280;2798;42.716;23.256;2023-12-20T00:41:06;95042.31;;;3.63;80.93
5550;BME280;2798;42.716;23.256;2023-12-20T00:43:31;95032.31;;;3.58;81.22
5550;BME280;2798;42.716;23.256;2023-12-20T00:45:56;95029.25;;;3.50;81.57
5550;BME280;2798;42.716;23.256;2023-12-20T00:48:22;95030.53;;;3.60;81.33
5550;BME280;2798;42.716;23.256;2023-12-20T00:50:47;95035.63;;;3.60;81.15
5550;BME280;2798;42.716;23.256;2023-12-20T00:53:12;95030.78;;;3.54;81.50
5550;BME280;2798;42.716;23.256;2023-12-20T00:55:38;95026.78;;;3.48;82.18
5550;BME280;2798;42.716;23.256;2023-12-20T00:58:03;95033.97;;;3.59;80.64
5550;BME280;2798;42.716;23.256;2023-12-20T01:00:28;95027.22;;;3.58;81.30
5550;BME280;2798;42.716;23.256;2023-12-20T01:02:54;95026.59;;;3.53;80.98
5550;BME280;2798;42.716;23.256;2023-12-20T01:05:20;95017.28;;;3.52;81.56
5550;BME280;2798;42.716;23.256;2023-12-20T01:07:48;95016.25;;;3.78;80.22
5550;BME280;2798;42.716;23.256;2023-12-20T01:10:13;95010.66;;;3.91;79.40
5550;BME280;2798;42.716;23.256;2023-12-20T01:12:39;95004.91;;;3.86;79.28
5550;BME280;2798;42.716;23.256;2023-12-20T01:15:04;95004.34;;;4.00;79.11
5550;BME280;2798;42.716;23.256;2023-12-20T01:17:29;94999.75;;;4.08;77.29
5550;BME280;2798;42.716;23.256;2023-12-20T01:19:55;95007.16;;;4.14;77.48
5550;BME280;2798;42.716;23.256;2023-12-20T01:22:20;95002.63;;;4.00;78.05
5550;BME280;2798;42.716;23.256;2023-12-20T01:24:45;94996.06;;;4.15;77.34
5550;BME280;2798;42.716;23.256;2023-12-20T01:27:11;94988.28;;;4.18;76.53
5550;BME280;2798;42.716;23.256;2023-12-20T01:29:36;94984.03;;;4.19;76.44
5550;BME280;2798;42.716;23.256;2023-12-20T01:32:01;94984.91;;;3.97;77.97
5550;BME280;2798;42.716;23.256;2023-12-20T01:34:27;94980.78;;;4.15;77.20
5550;BME280;2798;42.716;23.256;2023-12-20T01:36:52;94979.88;;;4.16;76.49
5550;BME280;2798;42.716;23.256;2023-12-20T01:39:17;94973.84;;;4.19;76.57
5550;BME280;2798;42.716;23.256;2023-12-20T01:41:43;94988.44;;;3.94;77.75
5550;BME280;2798;42.716;23.256;2023-12-20T01:44:08;94967.13;;;4.16;76.27
5550;BME280;2798;42.716;23.256;2023-12-20T01:46:33;94967.13;;;4.16;75.96
5550;BME280;2798;42.716;23.256;2023-12-20T01:48:59;94958.78;;;4.13;76.67
5550;BME280;2798;42.716;23.256;2023-12-20T01:51:24;94959.66;;;3.92;77.14
5550;BME280;2798;42.716;23.256;2023-12-20T01:53:52;94954.72;;;4.08;76.78
5550;BME280;2798;42.716;23.256;2023-12-20T01:56:17;94954.47;;;4.15;75.75
5550;BME280;2798;42.716;23.256;2023-12-20T01:58:46;94952.13;;;4.10;76.29
5550;BME280;2798;42.716;23.256;2023-12-20T02:01:12;94947.03;;;3.89;77.13
5550;BME280;2798;42.716;23.256;2023-12-20T02:03:39;94947.16;;;4.07;76.24
5550;BME280;2798;42.716;23.256;2023-12-20T02:06:04;94943.50;;;4.13;75.85
5550;BME280;2798;42.716;23.256;2023-12-20T02:08:30;94942.06;;;4.07;76.14
5550;BME280;2798;42.716;23.256;2023-12-20T02:10:55;94934.38;;;3.88;77.66
5550;BME280;2798;42.716;23.256;2023-12-20T02:13:21;94933.72;;;4.03;76.57
5550;BME280;2798;42.716;23.256;2023-12-20T02:15:46;94934.41;;;4.07;75.64
5550;BME280;2798;42.716;23.256;2023-12-20T02:18:11;94937.09;;;4.04;75.94
5550;BME280;2798;42.716;23.256;2023-12-20T02:20:40;94927.59;;;3.88;77.59
5550;BME280;2798;42.716;23.256;2023-12-20T02:23:05;94928.03;;;3.98;76.78
5550;BME280;2798;42.716;23.256;2023-12-20T02:25:31;94925.34;;;4.01;75.75
5550;BME280;2798;42.716;23.256;2023-12-20T02:27:56;94915.09;;;4.03;76.02
5550;BME280;2798;42.716;23.256;2023-12-20T02:30:21;94920.94;;;3.84;77.18
5550;BME280;2798;42.716;23.256;2023-12-20T02:32:47;94915.28;;;3.98;77.18
5550;BME280;2798;42.716;23.256;2023-12-20T02:35:13;94919.34;;;4.02;76.88
5550;BME280;2798;42.716;23.256;2023-12-20T02:37:38;94910.06;;;4.01;77.21
5550;BME280;2798;42.716;23.256;2023-12-20T02:40:04;94902.31;;;3.83;77.77
5550;BME280;2798;42.716;23.256;2023-12-20T02:42:29;94903.28;;;4.00;77.47
5550;BME280;2798;42.716;23.256;2023-12-20T02:44:55;94895.44;;;4.05;77.15
5550;BME280;2798;42.716;23.256;2023-12-20T02:47:20;94899.81;;;4.03;77.35
5550;BME280;2798;42.716;23.256;2023-12-20T02:49:45;94901.97;;;3.91;78.45
5550;BME280;2798;42.716;23.256;2023-12-20T02:52:11;94897.63;;;3.93;78.52
5550;BME280;2798;42.716;23.256;2023-12-20T02:54:36;94860.75;;;3.83;76.92
5550;BME280;2798;42.716;23.256;2023-12-20T02:57:01;94892.03;;;4.06;77.50
5550;BME280;2798;42.716;23.256;2023-12-20T02:59:27;94899.16;;;3.98;77.97
5550;BME280;2798;42.716;23.256;2023-12-20T03:01:52;94901.09;;;3.92;78.86
5550;BME280;2798;42.716;23.256;2023-12-20T03:04:17;94895.31;;;4.08;77.18
5550;BME280;2798;42.716;23.256;2023-12-20T03:06:43;94888.56;;;4.07;76.83
5550;BME280;2798;42.716;23.256;2023-12-20T03:09:08;94889.31;;;3.90;77.88
5550;BME280;2798;42.716;23.256;2023-12-20T03:11:33;94889.13;;;3.94;78.71
5550;BME280;2798;42.716;23.256;2023-12-20T03:13:59;94888.78;;;4.02;76.82
5550;BME280;2798;42.716;23.256;2023-12-20T03:16:24;94886.22;;;4.02;76.90
5550;BME280;2798;42.716;23.256;2023-12-20T03:18:49;94887.78;;;3.86;78.00
5550;BME280;2798;42.716;23.256;2023-12-20T03:21:15;94885.09;;;3.89;78.20
5550;BME280;2798;42.716;23.256;2023-12-20T03:23:40;94884.38;;;4.06;76.45
5550;BME280;2798;42.716;23.256;2023-12-20T03:26:08;94887.00;;;4.04;76.75
5550;BME280;2798;42.716;23.256;2023-12-20T03:28:34;94879.28;;;3.87;77.81
5550;BME280;2798;42.716;23.256;2023-12-20T03:30:59;94883.94;;;3.77;78.23
5550;BME280;2798;42.716;23.256;2023-12-20T03:33:25;94881.41;;;3.96;76.58
5550;BME280;2798;42.716;23.256;2023-12-20T03:35:50;94868.69;;;3.96;76.67
5550;BME280;2798;42.716;23.256;2023-12-20T03:38:15;94874.91;;;3.89;77.60
5550;BME280;2798;42.716;23.256;2023-12-20T03:40:40;94878.19;;;3.71;78.68
5550;BME280;2798;42.716;23.256;2023-12-20T03:43:06;94866.13;;;3.96;76.11
5550;BME280;2798;42.716;23.256;2023-12-20T03:45:31;94866.97;;;3.97;75.88
5550;BME280;2798;42.716;23.256;2023-12-20T03:47:56;94869.69;;;3.92;76.14
5550;BME280;2798;42.716;23.256;2023-12-20T03:50:22;94868.78;;;3.74;77.24
5550;BME280;2798;42.716;23.256;2023-12-20T03:52:47;94870.59;;;3.91;76.90
5550;BME280;2798;42.716;23.256;2023-12-20T03:55:13;94872.31;;;3.90;75.92
5550;BME280;2798;42.716;23.256;2023-12-20T03:57:38;94872.50;;;3.86;76.63
5550;BME280;2798;42.716;23.256;2023-12-20T04:00:04;94861.97;;;3.74;76.78
5550;BME280;2798;42.716;23.256;2023-12-20T04:02:34;94874.22;;;3.66;78.83
5550;BME280;2798;42.716;23.256;2023-12-20T04:04:59;94856.41;;;3.85;76.10
5550;BME280;2798;42.716;23.256;2023-12-20T04:07:25;94854.69;;;3.86;76.05
5550;BME280;2798;42.716;23.256;2023-12-20T04:09:50;94850.63;;;3.81;76.60
5550;BME280;2798;42.716;23.256;2023-12-20T04:12:16;94846.22;;;3.66;77.06
5550;BME280;2798;42.716;23.256;2023-12-20T04:14:41;94843.13;;;3.78;76.59
5550;BME280;2798;42.716;23.256;2023-12-20T04:17:06;94847.38;;;3.78;75.94
5550;BME280;2798;42.716;23.256;2023-12-20T04:19:32;94840.50;;;3.80;76.07
5550;BME280;2798;42.716;23.256;2023-12-20T04:21:57;94828.88;;;3.74;76.36
5550;BME280;2798;42.716;23.256;2023-12-20T04:24:22;94832.59;;;3.67;77.32
5550;BME280;2798;42.716;23.256;2023-12-20T04:26:48;94833.72;;;3.59;77.75
5550;BME280;2798;42.716;23.256;2023-12-20T04:29:13;94828.88;;;3.74;76.63
5550;BME280;2798;42.716;23.256;2023-12-20T04:31:38;94830.59;;;3.74;76.54
5550;BME280;2798;42.716;23.256;2023-12-20T04:34:04;94829.06;;;3.69;76.71
5550;BME280;2798;42.716;23.256;2023-12-20T04:36:29;94834.22;;;3.68;77.26
5550;BME280;2798;42.716;23.256;2023-12-20T04:38:55;94832.16;;;3.57;77.66
5550;BME280;2798;42.716;23.256;2023-12-20T04:41:20;94829.59;;;3.57;77.76
5550;BME280;2798;42.716;23.256;2023-12-20T04:43:45;94822.19;;;3.71;76.20
5550;BME280;2798;42.716;23.256;2023-12-20T04:46:11;94824.03;;;3.68;76.29
5550;BME280;2798;42.716;23.256;2023-12-20T04:48:36;94830.03;;;3.67;77.18
5550;BME280;2798;42.716;23.256;2023-12-20T04:51:01;94820.91;;;3.63;76.82
5550;BME280;2798;42.716;23.256;2023-12-20T04:53:27;94820.59;;;3.50;78.40
5550;BME280;2798;42.716;23.256;2023-12-20T04:55:52;94816.19;;;3.53;77.90
5550;BME280;2798;42.716;23.256;2023-12-20T04:58:18;94824.13;;;3.66;76.95
5550;BME280;2798;42.716;23.256;2023-12-20T05:00:43;94823.16;;;3.69;76.73
5550;BME280;2798;42.716;23.256;2023-12-20T05:03:12;94818.28;;;3.64;76.62
5550;BME280;2798;42.716;23.256;2023-12-20T05:05:37;94823.75;;;3.55;77.72
5550;BME280;2798;42.716;23.256;2023-12-20T05:08:03;94813.03;;;3.48;78.52
5550;BME280;2798;42.716;23.256;2023-12-20T05:10:29;94808.09;;;3.64;77.34
5550;BME280;2798;42.716;23.256;2023-12-20T05:12:54;94813.31;;;3.61;77.15
5550;BME280;2798;42.716;23.256;2023-12-20T05:15:19;94810.75;;;3.61;77.27
5550;BME280;2798;42.716;23.256;2023-12-20T05:17:45;94806.69;;;3.57;78.06
5550;BME280;2798;42.716;23.256;2023-12-20T05:20:10;94806.84;;;3.54;77.97
5550;BME280;2798;42.716;23.256;2023-12-20T05:22:35;94803.66;;;3.49;79.27
5550;BME280;2798;42.716;23.256;2023-12-20T05:25:01;94792.06;;;3.62;77.01
5550;BME280;2798;42.716;23.256;2023-12-20T05:27:26;94793.63;;;3.65;77.20
5550;BME280;2798;42.716;23.256;2023-12-20T05:29:51;94790.47;;;3.59;77.80
5550;BME280;2798;42.716;23.256;2023-12-20T05:32:16;94789.72;;;3.57;77.96
5550;BME280;2798;42.716;23.256;2023-12-20T05:34:42;94798.06;;;3.40;78.73
5550;BME280;2798;42.716;23.256;2023-12-20T05:37:07;94787.19;;;3.57;78.41
5550;BME280;2798;42.716;23.256;2023-12-20T05:39:32;94789.44;;;3.64;76.83
5550;BME280;2798;42.716;23.256;2023-12-20T05:41:58;94793.00;;;3.59;77.10
5550;BME280;2798;42.716;23.256;2023-12-20T05:44:23;94782.91;;;3.58;77.92
5550;BME280;2798;42.716;23.256;2023-12-20T05:46:48;94786.81;;;3.46;79.28
5550;BME280;2798;42.716;23.256;2023-12-20T05:49:14;94780.19;;;3.63;77.72
5550;BME280;2798;42.716;23.256;2023-12-20T05:51:39;94780.91;;;3.65;77.58
5550;BME280;2798;42.716;23.256;2023-12-20T05:54:04;94776.03;;;3.60;77.81
5550;BME280;2798;42.716;23.256;2023-12-20T05:56:30;94773.69;;;3.55;77.38
5550;BME280;2798;42.716;23.256;2023-12-20T05:58:55;94780.09;;;3.45;79.25
5550;BME280;2798;42.716;23.256;2023-12-20T06:01:20;94770.78;;;3.63;77.96
5550;BME280;2798;42.716;23.256;2023-12-20T06:03:45;94769.66;;;3.70;77.49
5550;BME280;2798;42.716;23.256;2023-12-20T06:06:11;94773.97;;;3.68;77.93
5550;BME280;2798;42.716;23.256;2023-12-20T06:08:37;94766.88;;;3.56;79.35
5550;BME280;2798;42.716;23.256;2023-12-20T06:11:03;94772.19;;;3.70;77.67
5550;BME280;2798;42.716;23.256;2023-12-20T06:13:28;94769.44;;;3.75;77.64
5550;BME280;2798;42.716;23.256;2023-12-20T06:15:57;94746.81;;;3.50;78.08
5550;BME280;2798;42.716;23.256;2023-12-20T06:18:22;94771.16;;;3.75;79.21
5550;BME280;2798;42.716;23.256;2023-12-20T06:20:48;94776.88;;;3.80;78.65
5550;BME280;2798;42.716;23.256;2023-12-20T06:23:13;94777.50;;;3.85;77.60
5550;BME280;2798;42.716;23.256;2023-12-20T06:25:38;94767.09;;;3.70;78.83
5550;BME280;2798;42.716;23.256;2023-12-20T06:28:04;94769.94;;;3.83;78.61
5550;BME280;2798;42.716;23.256;2023-12-20T06:30:29;94778.94;;;3.91;77.68
5550;BME280;2798;42.716;23.256;2023-12-20T06:32:55;94772.34;;;3.87;78.92
5550;BME280;2798;42.716;23.256;2023-12-20T06:35:22;94772.94;;;3.73;79.95
5550;BME280;2798;42.716;23.256;2023-12-20T06:37:47;94764.41;;;3.93;78.77
5550;BME280;2798;42.716;23.256;2023-12-20T06:40:13;94773.84;;;3.91;78.51
5550;BME280;2798;42.716;23.256;2023-12-20T06:42:38;94762.94;;;3.87;79.30
5550;BME280;2798;42.716;23.256;2023-12-20T06:45:04;94764.56;;;3.90;79.94
5550;BME280;2798;42.716;23.256;2023-12-20T06:47:29;94759.72;;;4.03;79.16
5550;BME280;2798;42.716;23.256;2023-12-20T06:49:54;94756.97;;;4.07;79.52
5550;BME280;2798;42.716;23.256;2023-12-20T06:52:20;94752.47;;;4.13;79.63
5550;BME280;2798;42.716;23.256;2023-12-20T06:54:45;94750.84;;;4.29;79.17
5550;BME280;2798;42.716;23.256;2023-12-20T06:57:10;94749.22;;;4.28;79.44
5550;BME280;2798;42.716;23.256;2023-12-20T06:59:40;94752.44;;;4.32;79.06
5550;BME280;2798;42.716;23.256;2023-12-20T07:02:05;94745.75;;;4.29;79.94
5550;BME280;2798;42.716;23.256;2023-12-20T07:04:31;94740.66;;;4.29;80.08
5550;BME280;2798;42.716;23.256;2023-12-20T07:06:56;94737.97;;;4.32;80.15
5550;BME280;2798;42.716;23.256;2023-12-20T07:09:25;94741.97;;;4.38;79.63
5550;BME280;2798;42.716;23.256;2023-12-20T07:11:50;94746.06;;;4.41;79.71
5550;BME280;2798;42.716;23.256;2023-12-20T07:14:16;94743.22;;;4.47;79.34
5550;BME280;2798;42.716;23.256;2023-12-20T07:16:42;94744.00;;;4.49;79.34
5550;BME280;2798;42.716;23.256;2023-12-20T07:19:07;94736.97;;;4.54;79.37
5550;BME280;2798;42.716;23.256;2023-12-20T07:21:33;94731.72;;;4.57;79.46
5550;BME280;2798;42.716;23.256;2023-12-20T07:23:58;94743.31;;;4.63;79.30
5550;BME280;2798;42.716;23.256;2023-12-20T07:26:23;94736.28;;;4.68;79.35
5550;BME280;2798;42.716;23.256;2023-12-20T07:28:49;94722.47;;;4.73;78.95
5550;BME280;2798;42.716;23.256;2023-12-20T07:31:17;94723.97;;;4.77;78.65
5550;BME280;2798;42.716;23.256;2023-12-20T07:33:43;94727.94;;;4.82;78.88
5550;BME280;2798;42.716;23.256;2023-12-20T07:36:08;94720.97;;;4.86;78.53
5550;BME280;2798;42.716;23.256;2023-12-20T07:38:34;94724.13;;;4.91;78.39
5550;BME280;2798;42.716;23.256;2023-12-20T07:40:59;94727.31;;;4.95;78.59
5550;BME280;2798;42.716;23.256;2023-12-20T07:43:24;94730.72;;;4.95;78.55
5550;BME280;2798;42.716;23.256;2023-12-20T07:45:50;94725.53;;;4.97;78.23
5550;BME280;2798;42.716;23.256;2023-12-20T07:48:15;94717.63;;;5.02;78.73
5550;BME280;2798;42.716;23.256;2023-12-20T07:50:41;94717.41;;;5.06;78.78
5550;BME280;2798;42.716;23.256;2023-12-20T07:53:06;94717.16;;;5.11;78.45
5550;BME280;2798;42.716;23.256;2023-12-20T07:55:31;94709.34;;;5.14;78.54
5550;BME280;2798;42.716;23.256;2023-12-20T07:57:57;94716.81;;;5.19;78.66
5550;BME280;2798;42.716;23.256;2023-12-20T08:00:23;94719.28;;;5.21;78.54
5550;BME280;2798;42.716;23.256;2023-12-20T08:02:48;94707.16;;;5.24;78.58
5550;BME280;2798;42.716;23.256;2023-12-20T08:05:13;94712.09;;;5.27;78.75
5550;BME280;2798;42.716;23.256;2023-12-20T08:07:39;94717.97;;;5.29;78.52
5550;BME280;2798;42.716;23.256;2023-12-20T08:10:04;94699.09;;;5.32;78.36
5550;BME280;2798;42.716;23.256;2023-12-20T08:12:30;94704.88;;;5.36;78.52
5550;BME280;2798;42.716;23.256;2023-12-20T08:14:55;94703.91;;;5.38;78.34
5550;BME280;2798;42.716;23.256;2023-12-20T08:17:22;94698.72;;;5.40;78.50
5550;BME280;2798;42.716;23.256;2023-12-20T08:19:48;94703.59;;;5.44;78.69
5550;BME280;2798;42.716;23.256;2023-12-20T08:22:13;94697.31;;;5.50;78.48
5550;BME280;2798;42.716;23.256;2023-12-20T08:24:39;94692.63;;;5.59;78.48
5550;BME280;2798;42.716;23.256;2023-12-20T08:27:04;94698.16;;;5.67;78.48
5550;BME280;2798;42.716;23.256;2023-12-20T08:29:30;94698.50;;;5.77;78.08
5550;BME280;2798;42.716;23.256;2023-12-20T08:31:55;94697.25;;;5.84;77.83
5550;BME280;2798;42.716;23.256;2023-12-20T08:34:21;94688.28;;;5.93;77.31
5550;BME280;2798;42.716;23.256;2023-12-20T08:36:46;94681.06;;;6.00;77.96
5550;BME280;2798;42.716;23.256;2023-12-20T08:39:11;94680.03;;;6.04;77.57
5550;BME280;2798;42.716;23.256;2023-12-20T08:41:37;94699.41;;;6.08;77.12
5550;BME280;2798;42.716;23.256;2023-12-20T08:44:02;94674.69;;;6.09;77.59
5550;BME280;2798;42.716;23.256;2023-12-20T08:46:28;94666.00;;;6.11;77.65
5550;BME280;2798;42.716;23.256;2023-12-20T08:48:53;94671.88;;;6.13;77.29
5550;BME280;2798;42.716;23.256;2023-12-20T08:51:18;94670.94;;;6.14;77.56
5550;BME280;2798;42.716;23.256;2023-12-20T08:53:44;94671.69;;;6.16;77.66
5550;BME280;2798;42.716;23.256;2023-12-20T08:56:10;94659.66;;;6.18;77.15
5550;BME280;2798;42.716;23.256;2023-12-20T08:58:35;94657.03;;;6.20;77.75
5550;BME280;2798;42.716;23.256;2023-12-20T09:01:01;94651.81;;;6.22;77.94
5550;BME280;2798;42.716;23.256;2023-12-20T09:03:26;94637.22;;;6.24;77.66
5550;BME280;2798;42.716;23.256;2023-12-20T09:05:51;94633.75;;;6.25;78.24
5550;BME280;2798;42.716;23.256;2023-12-20T09:08:17;94624.19;;;6.28;77.99
5550;BME280;2798;42.716;23.256;2023-12-20T09:10:42;94620.53;;;6.33;78.11
5550;BME280;2798;42.716;23.256;2023-12-20T09:13:07;94607.56;;;6.36;78.00
5550;BME280;2798;42.716;23.256;2023-12-20T09:15:33;94607.41;;;6.39;77.71
5550;BME280;2798;42.716;23.256;2023-12-20T09:17:59;94601.13;;;6.45;77.72
5550;BME280;2798;42.716;23.256;2023-12-20T09:20:24;94592.34;;;6.49;78.11
5550;BME280;2798;42.716;23.256;2023-12-20T09:22:50;94587.88;;;6.52;77.98
5550;BME280;2798;42.716;23.256;2023-12-20T09:25:15;94579.94;;;6.57;78.04
5550;BME280;2798;42.716;23.256;2023-12-20T09:27:42;94574.56;;;6.62;77.77
5550;BME280;2798;42.716;23.256;2023-12-20T09:30:08;94565.88;;;6.64;78.00
5550;BME280;2798;42.716;23.256;2023-12-20T09:32:33;94562.31;;;6.67;77.73
5550;BME280;2798;42.716;23.256;2023-12-20T09:34:59;94558.66;;;6.71;77.66
5550;BME280;2798;42.716;23.256;2023-12-20T09:37:27;94557.66;;;6.74;77.01
5550;BME280;2798;42.716;23.256;2023-12-20T09:39:53;94547.97;;;6.79;78.33
5550;BME280;2798;42.716;23.256;2023-12-20T09:42:21;94542.56;;;6.84;77.94
5550;BME280;2798;42.716;23.256;2023-12-20T09:44:48;94532.06;;;6.88;77.52
5550;BME280;2798;42.716;23.256;2023-12-20T09:47:14;94536.91;;;6.93;77.32
5550;BME280;2798;42.716;23.256;2023-12-20T09:49:40;94538.34;;;6.97;77.48
5550;BME280;2798;42.716;23.256;2023-12-20T09:52:07;94534.69;;;7.01;77.58
5550;BME280;2798;42.716;23.256;2023-12-20T09:54:34;94535.13;;;7.08;77.60
5550;BME280;2798;42.716;23.256;2023-12-20T09:57:00;94525.44;;;7.13;76.48
5550;BME280;2798;42.716;23.256;2023-12-20T09:59:25;94520.03;;;7.18;76.66
5550;BME280;2798;42.716;23.256;2023-12-20T10:01:50;94499.28;;;7.23;76.52
5550;BME280;2798;42.716;23.256;2023-12-20T10:04:19;94504.19;;;7.26;76.65
5550;BME280;2798;42.716;23.256;2023-12-20T10:06:45;94512.41;;;7.31;75.91
5550;BME280;2798;42.716;23.256;2023-12-20T10:09:11;94512.75;;;7.39;75.70
5550;BME280;2798;42.716;23.256;2023-12-20T10:11:37;94511.13;;;7.51;76.48
5550;BME280;2798;42.716;23.256;2023-12-20T10:14:02;94496.59;;;7.52;75.55
5550;BME280;2798;42.716;23.256;2023-12-20T10:16:28;94498.50;;;7.76;76.24
5550;BME280;2798;42.716;23.256;2023-12-20T10:18:54;94490.31;;;7.84;75.74
5550;BME280;2798;42.716;23.256;2023-12-20T10:21:19;94482.09;;;7.91;75.87
5550;BME280;2798;42.716;23.256;2023-12-20T10:23:45;94478.25;;;7.99;75.98
5550;BME280;2798;42.716;23.256;2023-12-20T10:26:18;94475.47;;;8.02;75.76
5550;BME280;2798;42.716;23.256;2023-12-20T10:28:44;94475.06;;;8.08;74.72
5550;BME280;2798;42.716;23.256;2023-12-20T10:31:09;94475.56;;;8.13;75.11
5550;BME280;2798;42.716;23.256;2023-12-20T10:33:35;94466.75;;;8.18;74.73
5550;BME280;2798;42.716;23.256;2023-12-20T10:36:00;94459.69;;;8.21;75.02
5550;BME280;2798;42.716;23.256;2023-12-20T10:38:25;94462.03;;;8.24;74.64
5550;BME280;2798;42.716;23.256;2023-12-20T10:40:54;94452.50;;;8.26;75.16
5550;BME280;2798;42.716;23.256;2023-12-20T10:43:22;94441.09;;;8.31;74.34
5550;BME280;2798;42.716;23.256;2023-12-20T10:45:48;94454.44;;;8.36;74.85
5550;BME280;2798;42.716;23.256;2023-12-20T10:48:13;94437.31;;;8.36;74.64
5550;BME280;2798;42.716;23.256;2023-12-20T10:50:41;94423.47;;;8.39;74.90
5550;BME280;2798;42.716;23.256;2023-12-20T10:53:07;94421.63;;;8.41;74.44
5550;BME280;2798;42.716;23.256;2023-12-20T10:55:32;94427.66;;;8.40;74.69
5550;BME280;2798;42.716;23.256;2023-12-20T10:58:03;94421.72;;;8.39;73.97
5550;BME280;2798;42.716;23.256;2023-12-20T11:00:31;94424.19;;;8.41;73.84
5550;BME280;2798;42.716;23.256;2023-12-20T11:03:00;94421.81;;;8.38;74.33
5550;BME280;2798;42.716;23.256;2023-12-20T11:05:42;94414.03;;;8.39;74.64
5550;BME280;2798;42.716;23.256;2023-12-20T11:15:59;94390.84;;;8.41;75.21
5550;BME280;2798;42.716;23.256;2023-12-20T11:18:28;94381.38;;;8.41;74.24
5550;BME280;2798;42.716;23.256;2023-12-20T11:20:54;94376.25;;;8.41;74.22
5550;BME280;2798;42.716;23.256;2023-12-20T11:23:19;94376.06;;;8.45;74.85
5550;BME280;2798;42.716;23.256;2023-12-20T11:25:55;94363.94;;;8.47;74.25
5550;BME280;2798;42.716;23.256;2023-12-20T11:28:24;94307.56;;;8.09;74.02
5550;BME280;2798;42.716;23.256;2023-12-20T11:30:50;94357.06;;;8.47;74.48
5550;BME280;2798;42.716;23.256;2023-12-20T11:33:16;94353.69;;;8.47;74.76
5550;BME280;2798;42.716;23.256;2023-12-20T11:35:42;94344.13;;;8.62;76.24
5550;BME280;2798;42.716;23.256;2023-12-20T11:38:10;94351.31;;;8.81;73.50
5550;BME280;2798;42.716;23.256;2023-12-20T11:40:37;94326.34;;;8.72;72.20
5550;BME280;2798;42.716;23.256;2023-12-20T11:43:02;94331.53;;;8.46;72.93
5550;BME280;2798;42.716;23.256;2023-12-20T11:45:29;94324.84;;;8.43;73.72
5550;BME280;2798;42.716;23.256;2023-12-20T11:47:55;94319.50;;;8.59;72.48
5550;BME280;2798;42.716;23.256;2023-12-20T11:50:22;94315.03;;;8.37;73.22
5550;BME280;2798;42.716;23.256;2023-12-20T11:52:48;94297.41;;;8.32;73.97
5550;BME280;2798;42.716;23.256;2023-12-20T11:55:14;94303.81;;;8.51;72.72
5550;BME280;2798;42.716;23.256;2023-12-20T11:57:39;94296.00;;;8.28;74.24
5550;BME280;2798;42.716;23.256;2023-12-20T12:00:05;94298.03;;;8.36;74.42
5550;BME280;2798;42.716;23.256;2023-12-20T12:02:31;94288.88;;;8.45;73.04
5550;BME280;2798;42.716;23.256;2023-12-20T12:04:57;94279.28;;;8.22;74.61
5550;BME280;2798;42.716;23.256;2023-12-20T12:07:23;94278.44;;;8.35;74.95
5550;BME280;2798;42.716;23.256;2023-12-20T12:09:49;94271.63;;;8.47;73.62
5550;BME280;2798;42.716;23.256;2023-12-20T12:12:14;94269.53;;;8.27;74.38
5550;BME280;2798;42.716;23.256;2023-12-20T12:14:40;94260.75;;;8.43;74.49
5550;BME280;2798;42.716;23.256;2023-12-20T12:17:14;94248.75;;;8.44;74.31
5550;BME280;2798;42.716;23.256;2023-12-20T12:19:40;94253.44;;;8.25;74.72
5550;BME280;2798;42.716;23.256;2023-12-20T12:24:37;94249.09;;;8.39;73.66
5550;BME280;2798;42.716;23.256;2023-12-20T12:27:03;94240.03;;;8.22;74.52
5550;BME280;2798;42.716;23.256;2023-12-20T12:29:28;94250.13;;;8.36;74.67
5550;BME280;2798;42.716;23.256;2023-12-20T12:31:54;94243.50;;;8.45;73.27
5550;BME280;2798;42.716;23.256;2023-12-20T12:34:19;94249.56;;;8.20;74.93
5550;BME280;2798;42.716;23.256;2023-12-20T12:36:45;94258.09;;;8.20;75.29
5550;BME280;2798;42.716;23.256;2023-12-20T12:39:17;94254.31;;;8.37;74.14
5550;BME280;2798;42.716;23.256;2023-12-20T12:41:43;94253.41;;;8.14;75.14
5550;BME280;2798;42.716;23.256;2023-12-20T12:44:08;94241.31;;;8.03;74.61
5550;BME280;2798;42.716;23.256;2023-12-20T12:46:33;94242.78;;;8.32;73.98
5550;BME280;2798;42.716;23.256;2023-12-20T12:48:59;94251.16;;;8.09;73.92
5550;BME280;2798;42.716;23.256;2023-12-20T12:51:25;94243.31;;;7.99;75.37
5550;BME280;2798;42.716;23.256;2023-12-20T12:53:50;94235.81;;;8.21;74.49
5550;BME280;2798;42.716;23.256;2023-12-20T12:56:15;94229.84;;;8.09;74.17
5550;BME280;2798;42.716;23.256;2023-12-20T12:58:41;94225.69;;;7.95;74.74
5550;BME280;2798;42.716;23.256;2023-12-20T13:01:06;94230.00;;;8.19;74.45
5550;BME280;2798;42.716;23.256;2023-12-20T13:03:32;94228.69;;;8.13;73.65
5550;BME280;2798;42.716;23.256;2023-12-20T13:05:57;94236.13;;;7.91;75.04
5550;BME280;2798;42.716;23.256;2023-12-20T13:08:22;94221.53;;;8.05;74.99
5550;BME280;2798;42.716;23.256;2023-12-20T13:10:48;94240.09;;;8.09;73.70
5550;BME280;2798;42.716;23.256;2023-12-20T13:13:14;94231.22;;;7.88;74.58
5550;BME280;2798;42.716;23.256;2023-12-20T13:15:39;94227.09;;;7.99;75.25
5550;BME280;2798;42.716;23.256;2023-12-20T13:18:05;94220.50;;;8.08;73.05
5550;BME280;2798;42.716;23.256;2023-12-20T13:20:31;94217.31;;;7.79;75.36
5550;BME280;2798;42.716;23.256;2023-12-20T13:22:58;94220.06;;;7.89;74.96
5550;BME280;2798;42.716;23.256;2023-12-20T13:25:23;94210.69;;;8.01;74.14